Time;durP1;ratioP1;P1;durP2;ratioP2;P2;SDS_P1;SDS_P2;PMS_P1;PMS_P2;Temp;Humidity;BMP_temperature;BMP_pressure;BME280_temperature;BME280_humidity;BME280_pressure;Samples;Min_cycle;Max_cycle;Signal;HPM_P1;HPM_P2
2022/06/07 00:01:38;;;;;;;5.72;3.33;;;;;;;;;;4447633;32;20284;-59
2022/06/07 00:04:04;;;;;;;8.35;3.45;;;;;;;;;;4447862;32;20299;-60
2022/06/07 00:06:30;;;;;;;5.97;3.65;;;;;;;;;;4449032;32;20682;-60
2022/06/07 00:08:56;;;;;;;7.22;3.28;;;;;;;;;;4447657;32;20700;-59
2022/06/07 00:11:22;;;;;;;7.75;4.05;;;;;;;;;;4448953;32;20224;-59
2022/06/07 00:13:48;;;;;;;9.63;3.72;;;;;;;;;;4449145;32;20317;-59
2022/06/07 00:16:14;;;;;;;8.55;3.70;;;;;;;;;;4448825;32;20217;-59
2022/06/07 00:18:40;;;;;;;4.37;3.37;;;;;;;;;;4448851;32;20264;-59
2022/06/07 00:21:06;;;;;;;9.80;3.42;;;;;;;;;;4449074;32;20196;-59
2022/06/07 00:23:32;;;;;;;8.13;3.25;;;;;;;;;;4447864;32;20294;-60
2022/06/07 00:25:58;;;;;;;4.65;3.37;;;;;;;;;;4448735;32;20189;-60
2022/06/07 00:28:25;;;;;;;3.62;2.92;;;;;;;;;;4448909;32;20193;-59
2022/06/07 00:30:52;;;;;;;7.35;4.30;;;;;;;;;;4448551;32;20219;-59
2022/06/07 00:33:19;;;;;;;5.25;3.40;;;;;;;;;;4448586;32;20193;-59
2022/06/07 00:35:45;;;;;;;4.30;3.60;;;;;;;;;;4448395;32;20321;-59
2022/06/07 00:38:11;;;;;;;6.47;3.75;;;;;;;;;;4459939;32;20421;-59
2022/06/07 00:40:37;;;;;;;6.85;3.75;;;;;;;;;;4464134;32;20200;-58
2022/06/07 00:43:03;;;;;;;4.80;3.42;;;;;;;;;;4464056;32;20224;-59
2022/06/07 00:45:29;;;;;;;5.47;4.30;;;;;;;;;;4454760;32;20238;-58
2022/06/07 00:47:54;;;;;;;5.03;2.60;;;;;;;;;;4448969;32;20308;-58
2022/06/07 00:50:44;;;;;;;5.25;3.15;;;;;;;;;;4448352;32;20631;-59
2022/06/07 00:53:21;;;;;;;6.07;3.37;;;;;;;;;;4448523;32;20304;-58
2022/06/07 00:55:47;;;;;;;6.95;3.95;;;;;;;;;;4454502;32;20321;-58
2022/06/07 00:58:12;;;;;;;6.82;3.55;;;;;;;;;;4463749;32;20306;-59
2022/06/07 01:00:38;;;;;;;7.85;3.40;;;;;;;;;;4464003;32;20184;-57
2022/06/07 01:03:03;;;;;;;6.75;3.90;;;;;;;;;;4464213;32;20216;-58
2022/06/07 01:05:29;;;;;;;10.60;3.92;;;;;;;;;;4464036;32;20209;-59
2022/06/07 01:10:44;;;;;;;7.07;3.72;;;;;;;;;;4463184;32;20247;-58
2022/06/07 01:13:11;;;;;;;4.45;3.08;;;;;;;;;;4463591;32;20322;-59
2022/06/07 01:15:36;;;;;;;7.85;3.05;;;;;;;;;;4463825;32;20200;-58
2022/06/07 01:18:02;;;;;;;4.90;2.95;;;;;;;;;;4462931;32;20232;-58
2022/06/07 01:20:29;;;;;;;7.03;3.28;;;;;;;;;;4463990;32;20216;-59
2022/06/07 01:22:55;;;;;;;4.70;2.58;;;;;;;;;;4462577;32;20546;-59
2022/06/07 01:25:21;;;;;;;4.10;2.70;;;;;;;;;;4463899;32;20394;-58
2022/06/07 01:27:47;;;;;;;5.32;3.10;;;;;;;;;;4462437;32;20232;-58
2022/06/07 01:30:13;;;;;;;5.40;2.92;;;;;;;;;;4463787;32;20711;-59
2022/06/07 01:32:39;;;;;;;7.45;2.80;;;;;;;;;;4463859;32;20590;-59
2022/06/07 01:35:05;;;;;;;13.82;3.20;;;;;;;;;;4462540;32;20838;-59
2022/06/07 01:37:31;;;;;;;4.32;2.87;;;;;;;;;;4454916;32;20593;-59
2022/06/07 01:42:41;;;;;;;6.57;3.05;;;;;;;;;;4448219;32;20242;-58
2022/06/07 01:45:07;;;;;;;3.60;2.87;;;;;;;;;;4448330;32;20718;-58
2022/06/07 01:47:33;;;;;;;5.18;2.97;;;;;;;;;;4451796;32;20751;-58
2022/06/07 01:49:59;;;;;;;8.00;3.03;;;;;;;;;;4451040;32;20233;-58
2022/06/07 01:52:28;;;;;;;9.25;2.87;;;;;;;;;;4451041;32;20216;-58
2022/06/07 01:54:54;;;;;;;9.63;3.47;;;;;;;;;;4451465;32;20189;-58
2022/06/07 01:57:20;;;;;;;8.60;2.90;;;;;;;;;;4466421;32;20341;-59
2022/06/07 01:59:46;;;;;;;4.60;2.42;;;;;;;;;;4466806;32;20285;-59
2022/06/07 02:02:11;;;;;;;3.85;2.80;;;;;;;;;;4466374;32;20276;-59
2022/06/07 02:04:38;;;;;;;3.45;2.62;;;;;;;;;;4467112;32;20299;-59
2022/06/07 02:07:05;;;;;;;4.43;2.60;;;;;;;;;;4466405;32;20648;-58
2022/06/07 02:09:31;;;;;;;2.83;2.50;;;;;;;;;;4453612;32;20212;-58
2022/06/07 02:11:57;;;;;;;4.75;2.95;;;;;;;;;;4450436;32;20312;-58
2022/06/07 02:14:23;;;;;;;11.68;4.22;;;;;;;;;;4450718;32;20665;-59
2022/06/07 02:16:48;;;;;;;7.47;3.28;;;;;;;;;;4450899;32;20386;-58
2022/06/07 02:19:14;;;;;;;5.40;3.25;;;;;;;;;;4450737;32;20251;-58
2022/06/07 02:21:39;;;;;;;6.07;3.35;;;;;;;;;;4450592;32;20329;-58
2022/06/07 02:24:07;;;;;;;9.93;3.28;;;;;;;;;;4450794;32;20311;-58
2022/06/07 02:26:34;;;;;;;5.43;2.58;;;;;;;;;;4450443;32;20256;-58
2022/06/07 02:29:07;;;;;;;5.57;3.25;;;;;;;;;;4450032;32;20255;-58
2022/06/07 02:31:36;;;;;;;11.65;4.37;;;;;;;;;;4450388;32;20255;-58
2022/06/07 02:34:03;;;;;;;5.65;3.75;;;;;;;;;;4450524;32;20193;-58
2022/06/07 02:36:31;;;;;;;4.15;3.05;;;;;;;;;;4450985;32;20665;-58
2022/06/07 02:38:57;;;;;;;5.20;4.30;;;;;;;;;;4465748;32;20204;-58
2022/06/07 02:41:26;;;;;;;3.65;3.00;;;;;;;;;;4465693;32;20334;-58
2022/06/07 02:43:53;;;;;;;5.05;2.78;;;;;;;;;;4463750;32;20220;-58
2022/06/07 02:46:18;;;;;;;7.22;3.15;;;;;;;;;;4464871;32;20223;-58
2022/06/07 02:48:44;;;;;;;3.80;3.35;;;;;;;;;;4465772;32;20266;-59
2022/06/07 02:51:09;;;;;;;6.37;4.20;;;;;;;;;;4465581;32;20295;-58
2022/06/07 02:53:35;;;;;;;5.82;3.70;;;;;;;;;;4450244;32;20259;-58
2022/06/07 02:56:00;;;;;;;4.60;3.37;;;;;;;;;;4457410;32;20627;-59
2022/06/07 02:58:27;;;;;;;5.90;4.00;;;;;;;;;;4463492;32;20314;-59
2022/06/07 03:00:52;;;;;;;5.80;4.03;;;;;;;;;;4465623;32;20229;-59
2022/06/07 03:03:18;;;;;;;5.12;3.92;;;;;;;;;;4465953;32;20282;-58
2022/06/07 03:05:43;;;;;;;12.18;4.00;;;;;;;;;;4465558;32;20224;-58
2022/06/07 03:08:09;;;;;;;5.18;4.43;;;;;;;;;;4460229;32;20303;-58
2022/06/07 03:10:35;;;;;;;8.45;4.07;;;;;;;;;;4450053;32;20220;-58
2022/06/07 03:13:00;;;;;;;6.10;3.92;;;;;;;;;;4449819;32;20280;-58
2022/06/07 03:15:28;;;;;;;9.23;3.85;;;;;;;;;;4449642;32;20205;-58
2022/06/07 03:17:54;;;;;;;7.57;3.50;;;;;;;;;;4449769;32;20224;-58
2022/06/07 03:20:19;;;;;;;13.15;4.45;;;;;;;;;;4449750;32;20310;-58
2022/06/07 03:22:45;;;;;;;9.73;4.60;;;;;;;;;;4450064;32;20510;-58
2022/06/07 03:25:11;;;;;;;3.80;3.30;;;;;;;;;;4449344;32;20643;-58
2022/06/07 03:27:38;;;;;;;4.47;3.28;;;;;;;;;;4449731;32;20644;-58
2022/06/07 03:30:08;;;;;;;8.68;4.30;;;;;;;;;;4449589;32;20275;-58
2022/06/07 03:32:34;;;;;;;5.72;4.50;;;;;;;;;;4450084;32;20212;-58
2022/06/07 03:35:00;;;;;;;4.28;3.58;;;;;;;;;;4449571;32;20294;-58
2022/06/07 03:37:26;;;;;;;5.87;4.28;;;;;;;;;;4449513;32;20208;-58
2022/06/07 03:39:51;;;;;;;8.05;4.30;;;;;;;;;;4449759;32;20633;-58
2022/06/07 03:42:18;;;;;;;5.62;4.43;;;;;;;;;;4464434;32;20238;-59
2022/06/07 03:44:48;;;;;;;5.03;3.37;;;;;;;;;;4459248;32;20244;-59
2022/06/07 03:47:21;;;;;;;6.07;3.53;;;;;;;;;;4448328;32;20258;-58
2022/06/07 03:49:46;;;;;;;4.47;3.92;;;;;;;;;;4448049;32;20236;-59
2022/06/07 03:52:12;;;;;;;5.15;3.80;;;;;;;;;;4456255;32;20275;-59
2022/06/07 03:54:39;;;;;;;5.60;3.67;;;;;;;;;;4464507;32;20303;-59
2022/06/07 03:57:05;;;;;;;9.02;3.92;;;;;;;;;;4464202;32;20266;-59
2022/06/07 03:59:31;;;;;;;9.68;3.10;;;;;;;;;;4464914;32;20192;-59
2022/06/07 04:01:56;;;;;;;5.05;3.53;;;;;;;;;;4463331;32;20292;-59
2022/06/07 04:04:22;;;;;;;12.00;4.10;;;;;;;;;;4464757;32;20726;-59
2022/06/07 04:09:39;;;;;;;6.30;3.78;;;;;;;;;;4451244;32;20235;-59
2022/06/07 04:12:15;;;;;;;4.15;3.75;;;;;;;;;;4448707;32;20250;-59
2022/06/07 04:14:43;;;;;;;4.70;3.75;;;;;;;;;;4449259;32;20205;-59
2022/06/07 04:17:10;;;;;;;8.00;3.45;;;;;;;;;;4448841;32;20318;-59
2022/06/07 04:19:37;;;;;;;3.47;3.17;;;;;;;;;;4449045;32;20220;-58
2022/06/07 04:22:03;;;;;;;6.97;3.12;;;;;;;;;;4448539;32;20213;-58
2022/06/07 04:24:30;;;;;;;5.75;3.90;;;;;;;;;;4449161;32;20242;-59
2022/06/07 04:26:55;;;;;;;4.20;3.35;;;;;;;;;;4448448;32;20607;-59
2022/06/07 04:29:22;;;;;;;12.80;3.55;;;;;;;;;;4448750;32;20370;-58
2022/06/07 04:31:48;;;;;;;10.27;3.67;;;;;;;;;;4448793;32;20224;-58
2022/06/07 04:34:14;;;;;;;4.20;3.05;;;;;;;;;;4449038;32;20352;-60
2022/06/07 04:36:39;;;;;;;8.15;3.95;;;;;;;;;;4450759;32;20231;-59
2022/06/07 04:39:06;;;;;;;7.82;4.28;;;;;;;;;;4464174;32;20263;-58
2022/06/07 04:41:32;;;;;;;7.65;3.28;;;;;;;;;;4463625;32;20594;-57
2022/06/07 04:43:58;;;;;;;4.93;3.67;;;;;;;;;;4464051;32;20252;-58
2022/06/07 04:46:25;;;;;;;3.92;3.42;;;;;;;;;;4448136;32;20668;-58
2022/06/07 04:48:51;;;;;;;4.20;3.72;;;;;;;;;;4448328;32;20272;-58
2022/06/07 04:51:31;;;;;;;5.78;3.75;;;;;;;;;;4448008;32;20276;-58
2022/06/07 04:53:58;;;;;;;5.95;4.43;;;;;;;;;;4464157;32;20657;-58
2022/06/07 04:56:26;;;;;;;5.57;4.85;;;;;;;;;;4463189;32;20244;-58
2022/06/07 04:58:52;;;;;;;7.70;4.80;;;;;;;;;;4463468;32;20188;-58
2022/06/07 05:01:19;;;;;;;14.85;5.53;;;;;;;;;;4463563;32;20635;-57
2022/06/07 05:03:45;;;;;;;6.25;4.32;;;;;;;;;;4463865;32;20223;-59
2022/06/07 05:06:19;;;;;;;8.05;4.12;;;;;;;;;;4463633;32;20278;-58
2022/06/07 05:08:45;;;;;;;11.35;4.65;;;;;;;;;;4463737;32;20583;-59
2022/06/07 05:11:11;;;;;;;6.20;3.87;;;;;;;;;;4462900;32;20312;-58
2022/06/07 05:13:37;;;;;;;6.30;4.78;;;;;;;;;;4462411;32;20751;-59
2022/06/07 05:16:03;;;;;;;6.15;4.37;;;;;;;;;;4461779;32;20212;-59
2022/06/07 05:18:29;;;;;;;13.15;6.07;;;;;;;;;;4457526;32;20220;-58
2022/06/07 05:20:55;;;;;;;9.60;6.22;;;;;;;;;;4448155;32;20212;-60
2022/06/07 05:23:21;;;;;;;9.38;5.22;;;;;;;;;;4451431;32;20259;-59
2022/06/07 05:25:58;;;;;;;8.07;5.80;;;;;;;;;;4451519;32;20514;-58
2022/06/07 05:28:24;;;;;;;8.77;5.53;;;;;;;;;;4451408;32;20601;-58
2022/06/07 05:30:49;;;;;;;11.55;5.40;;;;;;;;;;4451032;32;20267;-59
2022/06/07 05:33:15;;;;;;;7.50;4.50;;;;;;;;;;4456233;32;20289;-58
2022/06/07 05:35:42;;;;;;;6.97;5.47;;;;;;;;;;4466359;32;20289;-59
2022/06/07 05:38:10;;;;;;;10.23;5.72;;;;;;;;;;4455059;32;20236;-59
2022/06/07 05:40:36;;;;;;;9.05;5.62;;;;;;;;;;4450493;32;20185;-58
2022/06/07 05:43:01;;;;;;;10.95;6.60;;;;;;;;;;4450585;32;20267;-58
2022/06/07 05:45:27;;;;;;;13.13;5.43;;;;;;;;;;4459607;32;20274;-59
2022/06/07 05:47:52;;;;;;;12.70;6.32;;;;;;;;;;4465422;32;20679;-59
2022/06/07 05:50:18;;;;;;;16.42;5.80;;;;;;;;;;4465231;32;20228;-59
2022/06/07 05:52:43;;;;;;;8.55;5.95;;;;;;;;;;4454994;32;20232;-59
2022/06/07 05:55:09;;;;;;;9.93;4.55;;;;;;;;;;4451371;32;20584;-58
2022/06/07 05:57:35;;;;;;;9.15;6.40;;;;;;;;;;4466180;32;20556;-59
2022/06/07 06:00:02;;;;;;;6.90;5.05;;;;;;;;;;4465710;32;20276;-58
2022/06/07 06:02:28;;;;;;;14.27;6.60;;;;;;;;;;4466522;32;20216;-58
2022/06/07 06:04:53;;;;;;;7.75;5.57;;;;;;;;;;4465742;32;20266;-59
2022/06/07 06:07:19;;;;;;;6.85;4.87;;;;;;;;;;4466675;32;20275;-58
2022/06/07 06:12:29;;;;;;;8.50;6.03;;;;;;;;;;4465750;32;20442;-59
2022/06/07 06:14:55;;;;;;;11.85;5.82;;;;;;;;;;4458021;32;20271;-59
2022/06/07 06:17:21;;;;;;;9.55;6.12;;;;;;;;;;4450104;32;20295;-58
2022/06/07 06:19:46;;;;;;;7.95;5.97;;;;;;;;;;4450257;32;20652;-58
2022/06/07 06:22:13;;;;;;;8.48;5.37;;;;;;;;;;4450373;32;20244;-58
2022/06/07 06:24:39;;;;;;;11.75;5.28;;;;;;;;;;4450533;32;20252;-58
2022/06/07 06:27:05;;;;;;;6.90;5.22;;;;;;;;;;4450143;32;20325;-58
2022/06/07 06:29:30;;;;;;;6.95;5.37;;;;;;;;;;4450644;32;20589;-57
2022/06/07 06:31:56;;;;;;;11.85;6.15;;;;;;;;;;4449533;32;20220;-59
2022/06/07 06:34:21;;;;;;;12.40;5.30;;;;;;;;;;4450302;32;20267;-58
2022/06/07 06:36:47;;;;;;;17.08;5.75;;;;;;;;;;4450117;32;20297;-58
2022/06/07 06:39:14;;;;;;;7.15;5.40;;;;;;;;;;4450192;32;20279;-60
2022/06/07 06:41:41;;;;;;;8.25;5.68;;;;;;;;;;4449514;32;20304;-59
2022/06/07 06:44:09;;;;;;;8.93;5.45;;;;;;;;;;4449812;32;20230;-58
2022/06/07 06:46:40;;;;;;;8.77;5.12;;;;;;;;;;4450217;32;20531;-59
2022/06/07 06:49:06;;;;;;;8.48;5.75;;;;;;;;;;4448888;32;20240;-58
2022/06/07 06:51:32;;;;;;;11.52;6.22;;;;;;;;;;4451980;32;20258;-59
2022/06/07 06:53:59;;;;;;;7.45;5.35;;;;;;;;;;4465612;32;20334;-59
2022/06/07 06:56:28;;;;;;;8.90;5.75;;;;;;;;;;4465275;32;20731;-59
2022/06/07 06:58:54;;;;;;;6.28;5.25;;;;;;;;;;4465616;32;20289;-58
2022/06/07 07:01:26;;;;;;;14.00;7.00;;;;;;;;;;4465806;32;20260;-59
2022/06/07 07:03:52;;;;;;;8.02;5.72;;;;;;;;;;4465681;32;20234;-59
2022/06/07 07:06:19;;;;;;;8.35;5.97;;;;;;;;;;4465192;32;20215;-58
2022/06/07 07:08:46;;;;;;;10.32;5.57;;;;;;;;;;4465111;32;20267;-59
2022/06/07 07:11:17;;;;;;;6.12;4.68;;;;;;;;;;4457069;32;20331;-57
2022/06/07 07:13:43;;;;;;;5.15;4.65;;;;;;;;;;4450063;32;20589;-58
2022/06/07 07:16:11;;;;;;;6.25;5.10;;;;;;;;;;4449521;32;20385;-59
2022/06/07 07:18:37;;;;;;;11.98;5.55;;;;;;;;;;4449104;32;20201;-58
2022/06/07 07:21:08;;;;;;;9.32;4.43;;;;;;;;;;4449388;32;20545;-58
2022/06/07 07:23:35;;;;;;;8.27;5.45;;;;;;;;;;4450230;32;20249;-59
2022/06/07 07:26:14;;;;;;;8.85;4.78;;;;;;;;;;4447710;32;20333;-58
2022/06/07 07:28:41;;;;;;;8.40;5.03;;;;;;;;;;4448374;32;20595;-59
2022/06/07 07:31:10;;;;;;;10.80;5.20;;;;;;;;;;4449683;32;20197;-59
2022/06/07 07:33:35;;;;;;;8.70;5.43;;;;;;;;;;4449604;32;20223;-59
2022/06/07 07:36:04;;;;;;;7.75;5.05;;;;;;;;;;4449514;32;20205;-59
2022/06/07 07:38:29;;;;;;;7.47;5.30;;;;;;;;;;4462819;32;20247;-59
2022/06/07 07:40:55;;;;;;;10.02;6.28;;;;;;;;;;4464390;32;20204;-59
2022/06/07 07:43:20;;;;;;;12.80;6.28;;;;;;;;;;4464827;32;20729;-58
2022/06/07 07:45:51;;;;;;;10.85;5.78;;;;;;;;;;4453362;32;20260;-58
2022/06/07 07:48:16;;;;;;;8.43;6.62;;;;;;;;;;4449298;32;20177;-58
2022/06/07 07:50:42;;;;;;;11.85;7.95;;;;;;;;;;4447998;32;20259;-58
2022/06/07 07:53:08;;;;;;;11.30;7.80;;;;;;;;;;4462264;32;20254;-57
2022/06/07 07:55:33;;;;;;;12.57;6.95;;;;;;;;;;4463020;32;20266;-57
2022/06/07 07:57:59;;;;;;;10.82;6.85;;;;;;;;;;4464471;32;20236;-57
2022/06/07 08:00:25;;;;;;;9.32;7.32;;;;;;;;;;4464706;32;20188;-58
2022/06/07 08:02:50;;;;;;;9.88;7.25;;;;;;;;;;4464976;32;20291;-58
2022/06/07 08:05:16;;;;;;;14.65;8.23;;;;;;;;;;4464402;32;20526;-58
2022/06/07 08:07:41;;;;;;;10.95;6.95;;;;;;;;;;4455995;32;20633;-59
2022/06/07 08:10:07;;;;;;;11.30;7.05;;;;;;;;;;4448912;32;20338;-58
2022/06/07 08:12:33;;;;;;;13.02;7.95;;;;;;;;;;4449840;32;20224;-57
2022/06/07 08:14:58;;;;;;;15.27;8.68;;;;;;;;;;4449173;32;20714;-57
2022/06/07 08:17:25;;;;;;;15.52;7.68;;;;;;;;;;4449131;32;20235;-59
2022/06/07 08:19:51;;;;;;;12.75;7.93;;;;;;;;;;4449408;32;20193;-59
2022/06/07 08:22:16;;;;;;;16.33;7.32;;;;;;;;;;4448975;32;20250;-59
2022/06/07 08:24:42;;;;;;;16.70;7.57;;;;;;;;;;4450099;32;20263;-58
2022/06/07 08:27:09;;;;;;;15.90;9.68;;;;;;;;;;4448725;32;20220;-58
2022/06/07 08:29:34;;;;;;;14.73;7.95;;;;;;;;;;4448826;32;20220;-58
2022/06/07 08:32:00;;;;;;;11.88;8.57;;;;;;;;;;4448403;32;20426;-57
2022/06/07 08:39:54;;;;;;;9.43;7.25;;;;;;;;;;4463868;32;20449;-58
2022/06/07 08:42:33;;;;;;;12.48;8.13;;;;;;;;;;4464302;32;20710;-58
2022/06/07 08:45:35;;;;;;;13.85;7.30;;;;;;;;;;4464495;32;20200;-58
2022/06/07 08:48:05;;;;;;;16.33;7.57;;;;;;;;;;4416298;32;20402;-58
2022/06/07 08:50:39;;;;;;;12.40;8.30;;;;;;;;;;4455657;32;20222;-58
2022/06/07 08:53:25;;;;;;;10.23;7.03;;;;;;;;;;4451499;32;20235;-58
2022/06/07 08:55:57;;;;;;;10.65;8.00;;;;;;;;;;4453335;32;20339;-59
2022/06/07 08:58:34;;;;;;;23.23;8.70;;;;;;;;;;4462750;32;20251;-59
2022/06/07 09:01:13;;;;;;;9.55;7.80;;;;;;;;;;4464347;32;20196;-59
2022/06/07 09:03:54;;;;;;;8.80;6.95;;;;;;;;;;4456818;32;20217;-59
2022/06/07 09:06:25;;;;;;;9.75;6.93;;;;;;;;;;4448901;32;20821;-58
2022/06/07 09:08:57;;;;;;;12.02;7.35;;;;;;;;;;4456443;32;20278;-57
2022/06/07 09:14:21;;;;;;;15.45;6.50;;;;;;;;;;4458913;32;20391;-59
2022/06/07 09:16:48;;;;;;;9.40;7.30;;;;;;;;;;4463308;32;20792;-59
2022/06/07 09:19:27;;;;;;;12.27;7.18;;;;;;;;;;4451886;32;20562;-58
2022/06/07 09:21:58;;;;;;;10.05;6.18;;;;;;;;;;4448317;32;20288;-58
2022/06/07 09:24:42;;;;;;;11.43;6.68;;;;;;;;;;4448819;32;20633;-58
2022/06/07 09:27:15;;;;;;;8.52;6.00;;;;;;;;;;4449125;32;20333;-59
2022/06/07 09:29:42;;;;;;;7.87;7.00;;;;;;;;;;4463813;32;20295;-59
2022/06/07 09:32:15;;;;;;;7.40;6.60;;;;;;;;;;4463754;32;20230;-59
2022/06/07 09:34:54;;;;;;;26.10;7.12;;;;;;;;;;4463954;32;20267;-59
2022/06/07 09:37:26;;;;;;;11.65;6.72;;;;;;;;;;4447854;32;20631;-58
2022/06/07 09:40:09;;;;;;;9.38;7.05;;;;;;;;;;4461471;32;20668;-59
2022/06/07 09:42:35;;;;;;;7.40;5.95;;;;;;;;;;4461505;32;20635;-59
2022/06/07 09:45:18;;;;;;;7.30;5.57;;;;;;;;;;4456981;32;20275;-58
2022/06/07 09:47:44;;;;;;;7.57;5.25;;;;;;;;;;4461913;32;20616;-60
2022/06/07 09:50:18;;;;;;;9.32;5.30;;;;;;;;;;4456005;32;20318;-59
2022/06/07 09:52:47;;;;;;;6.07;4.40;;;;;;;;;;4445813;32;20228;-59
2022/06/07 09:55:15;;;;;;;7.75;5.45;;;;;;;;;;4445578;32;20572;-58
2022/06/07 09:57:49;;;;;;;11.85;6.07;;;;;;;;;;4460576;32;20402;-58
2022/06/07 10:00:32;;;;;;;11.00;5.37;;;;;;;;;;4448804;32;20208;-58
2022/06/07 10:03:22;;;;;;;5.85;5.22;;;;;;;;;;4452935;32;20242;-58
2022/06/07 10:06:16;;;;;;;10.65;5.22;;;;;;;;;;4445469;32;20735;-58
2022/06/07 10:09:19;;;;;;;7.05;4.43;;;;;;;;;;4457345;32;20300;-58
2022/06/07 10:12:06;;;;;;;6.93;4.03;;;;;;;;;;4456057;32;20390;-58
2022/06/07 10:14:48;;;;;;;5.95;4.45;;;;;;;;;;4451068;32;20223;-58
2022/06/07 10:17:47;;;;;;;14.10;5.07;;;;;;;;;;4450984;32;20208;-59
2022/06/07 10:20:22;;;;;;;5.62;4.28;;;;;;;;;;4450523;32;20209;-59
2022/06/07 10:22:54;;;;;;;5.22;4.40;;;;;;;;;;4450832;32;20223;-59
2022/06/07 10:25:25;;;;;;;4.87;4.37;;;;;;;;;;4449556;32;20343;-59
2022/06/07 10:27:56;;;;;;;5.78;4.65;;;;;;;;;;4451337;32;20687;-59
2022/06/07 10:30:32;;;;;;;17.15;4.57;;;;;;;;;;4450633;32;20196;-58
2022/06/07 10:33:16;;;;;;;9.45;4.68;;;;;;;;;;4451193;32;20239;-58
2022/06/07 10:35:56;;;;;;;5.80;4.53;;;;;;;;;;4450321;32;20230;-58
2022/06/07 10:38:35;;;;;;;9.25;6.45;;;;;;;;;;4450709;32;20287;-58
2022/06/07 10:41:07;;;;;;;7.43;4.40;;;;;;;;;;4450138;32;20219;-59
2022/06/07 10:43:38;;;;;;;5.20;4.37;;;;;;;;;;4450425;32;20215;-58
2022/06/07 10:46:10;;;;;;;6.90;5.18;;;;;;;;;;4449571;32;20213;-58
2022/06/07 10:49:05;;;;;;;6.85;4.85;;;;;;;;;;4450731;32;20223;-60
2022/06/07 10:54:29;;;;;;;5.50;4.30;;;;;;;;;;4465038;32;20341;-58
2022/06/07 10:57:12;;;;;;;5.47;4.70;;;;;;;;;;4464430;32;20215;-58
2022/06/07 10:59:42;;;;;;;10.82;5.12;;;;;;;;;;4466158;32;20192;-59
2022/06/07 11:02:35;;;;;;;8.75;4.45;;;;;;;;;;4451065;32;20307;-60
2022/06/07 11:11:13;;;;;;;7.60;4.78;;;;;;;;;;4449756;32;20408;-59
2022/06/07 11:13:47;;;;;;;4.90;4.40;;;;;;;;;;4450214;32;20193;-59
2022/06/07 11:16:29;;;;;;;6.00;4.40;;;;;;;;;;4449709;32;20294;-58
2022/06/07 11:18:55;;;;;;;9.95;4.80;;;;;;;;;;4449134;32;20193;-59
2022/06/07 11:21:26;;;;;;;7.90;5.30;;;;;;;;;;4449817;32;20224;-58
2022/06/07 11:24:16;;;;;;;5.95;5.35;;;;;;;;;;4449993;32;20245;-60
2022/06/07 11:26:51;;;;;;;5.72;4.75;;;;;;;;;;4449859;32;20221;-58
2022/06/07 11:29:27;;;;;;;6.35;5.10;;;;;;;;;;4449603;32;20266;-58
2022/06/07 11:31:53;;;;;;;8.25;4.57;;;;;;;;;;4450055;32;20224;-58
2022/06/07 11:34:24;;;;;;;5.15;4.53;;;;;;;;;;4450625;32;20313;-58
2022/06/07 11:36:55;;;;;;;5.45;4.93;;;;;;;;;;4449874;32;20262;-59
2022/06/07 11:39:54;;;;;;;5.15;4.65;;;;;;;;;;4449792;32;20313;-58
2022/06/07 11:42:28;;;;;;;5.43;4.78;;;;;;;;;;4395279;32;20290;-59
2022/06/07 11:45:18;;;;;;;6.93;4.97;;;;;;;;;;4449340;32;20288;-58
2022/06/07 11:47:43;;;;;;;8.02;4.40;;;;;;;;;;4450010;32;20629;-58
2022/06/07 11:50:27;;;;;;;9.18;4.90;;;;;;;;;;4448765;32;20297;-58
2022/06/07 11:53:12;;;;;;;8.18;4.87;;;;;;;;;;4460697;32;20243;-59
2022/06/07 11:55:41;;;;;;;10.52;5.35;;;;;;;;;;4464312;32;20264;-58
2022/06/07 11:58:08;;;;;;;7.28;4.75;;;;;;;;;;4465382;32;20232;-59
2022/06/07 12:00:47;;;;;;;5.68;4.30;;;;;;;;;;4463964;32;20250;-59
2022/06/07 12:03:29;;;;;;;16.20;5.32;;;;;;;;;;4465371;32;20216;-59
2022/06/07 12:06:08;;;;;;;5.03;4.45;;;;;;;;;;4465021;32;20234;-59
2022/06/07 12:08:51;;;;;;;5.78;4.85;;;;;;;;;;4456055;32;20263;-57
2022/06/07 12:11:23;;;;;;;5.60;5.00;;;;;;;;;;4465405;32;20258;-58
2022/06/07 12:14:04;;;;;;;5.93;4.60;;;;;;;;;;4465890;32;20188;-58
2022/06/07 12:16:39;;;;;;;8.88;4.32;;;;;;;;;;4465128;32;20307;-58
2022/06/07 12:19:18;;;;;;;5.93;4.50;;;;;;;;;;4464894;32;20188;-58
2022/06/07 12:21:53;;;;;;;4.78;4.25;;;;;;;;;;4465275;32;20212;-58
2022/06/07 12:24:19;;;;;;;8.68;4.57;;;;;;;;;;4464878;32;20195;-58
2022/06/07 12:26:47;;;;;;;12.20;4.43;;;;;;;;;;4465061;32;20248;-59
2022/06/07 12:29:18;;;;;;;7.45;4.78;;;;;;;;;;4463781;32;20530;-58
2022/06/07 12:31:57;;;;;;;7.03;4.87;;;;;;;;;;4465056;32;20247;-59
2022/06/07 12:34:26;;;;;;;8.70;4.37;;;;;;;;;;4465116;32;20529;-58
2022/06/07 12:36:59;;;;;;;7.87;4.75;;;;;;;;;;4461391;32;20263;-58
2022/06/07 12:39:26;;;;;;;5.18;4.30;;;;;;;;;;4449598;32;20197;-59
2022/06/07 12:42:03;;;;;;;8.25;4.32;;;;;;;;;;4447399;32;20308;-59
2022/06/07 12:44:32;;;;;;;5.65;4.55;;;;;;;;;;4447587;32;20228;-57
2022/06/07 12:47:01;;;;;;;5.12;4.40;;;;;;;;;;4447696;32;20290;-58
2022/06/07 12:49:33;;;;;;;20.75;4.60;;;;;;;;;;4449151;32;20204;-59
2022/06/07 12:52:05;;;;;;;6.30;4.03;;;;;;;;;;4454664;32;20212;-58
2022/06/07 12:54:35;;;;;;;7.62;4.15;;;;;;;;;;4464508;32;20936;-59
2022/06/07 12:57:15;;;;;;;5.07;4.32;;;;;;;;;;4460490;32;20375;-59
2022/06/07 12:59:50;;;;;;;7.07;3.83;;;;;;;;;;4447780;32;20343;-58
2022/06/07 13:02:39;;;;;;;6.30;4.70;;;;;;;;;;4449042;32;20200;-58
2022/06/07 13:05:10;;;;;;;4.10;3.80;;;;;;;;;;4448990;32;20254;-58
2022/06/07 13:07:48;;;;;;;6.20;3.97;;;;;;;;;;4449236;32;20276;-58
2022/06/07 13:10:19;;;;;;;4.93;4.00;;;;;;;;;;4463317;32;20216;-59
2022/06/07 13:12:54;;;;;;;6.12;4.20;;;;;;;;;;4464974;32;20367;-60
2022/06/07 13:15:44;;;;;;;9.27;5.57;;;;;;;;;;4463290;32;20389;-57
2022/06/07 13:18:15;;;;;;;5.20;4.70;;;;;;;;;;4448308;32;20264;-58
2022/06/07 13:20:44;;;;;;;9.45;4.03;;;;;;;;;;4464995;32;20310;-58
2022/06/07 13:23:12;;;;;;;4.97;4.47;;;;;;;;;;4465029;32;20317;-57
2022/06/07 13:25:38;;;;;;;12.27;5.40;;;;;;;;;;4464499;32;20204;-58
2022/06/07 13:28:17;;;;;;;9.75;4.95;;;;;;;;;;4464560;32;20631;-59
2022/06/07 13:30:45;;;;;;;4.47;3.95;;;;;;;;;;4464462;32;20624;-58
2022/06/07 13:33:10;;;;;;;7.90;3.85;;;;;;;;;;4464663;32;20431;-57
2022/06/07 13:35:46;;;;;;;14.00;4.57;;;;;;;;;;4464764;32;20242;-57
2022/06/07 13:38:21;;;;;;;4.47;4.07;;;;;;;;;;4452216;32;20248;-58
2022/06/07 13:40:47;;;;;;;5.60;5.10;;;;;;;;;;4449163;32;20228;-58
2022/06/07 13:43:22;;;;;;;9.35;4.07;;;;;;;;;;4450430;32;20321;-58
2022/06/07 13:45:51;;;;;;;4.78;3.87;;;;;;;;;;4451322;32;20293;-59
2022/06/07 13:48:20;;;;;;;10.05;4.47;;;;;;;;;;4451607;32;20188;-58
2022/06/07 13:53:51;;;;;;;4.47;4.07;;;;;;;;;;4450975;32;20211;-58
2022/06/07 13:56:19;;;;;;;8.73;4.68;;;;;;;;;;4460358;32;20212;-58
2022/06/07 13:58:53;;;;;;;7.03;4.40;;;;;;;;;;4467038;32;20196;-58
2022/06/07 14:01:23;;;;;;;5.57;4.50;;;;;;;;;;4465822;32;20212;-59
2022/06/07 14:03:53;;;;;;;9.07;4.10;;;;;;;;;;4467576;32;20563;-59
2022/06/07 14:06:32;;;;;;;6.30;4.53;;;;;;;;;;4467182;32;20273;-58
2022/06/07 14:08:59;;;;;;;7.37;4.87;;;;;;;;;;4466671;32;20541;-58
2022/06/07 14:11:25;;;;;;;10.25;4.20;;;;;;;;;;4466657;32;20246;-59
2022/06/07 14:13:51;;;;;;;4.62;4.22;;;;;;;;;;4466975;32;20289;-58
2022/06/07 14:16:22;;;;;;;6.55;4.85;;;;;;;;;;4466864;32;20216;-58
2022/06/07 14:18:48;;;;;;;5.10;3.90;;;;;;;;;;4466975;32;20268;-59
2022/06/07 14:21:13;;;;;;;8.05;4.32;;;;;;;;;;4466779;32;20304;-59
2022/06/07 14:23:39;;;;;;;20.88;4.32;;;;;;;;;;4466644;32;20267;-58
2022/06/07 14:26:04;;;;;;;13.57;5.40;;;;;;;;;;4466574;32;20200;-57
2022/06/07 14:28:30;;;;;;;5.20;4.70;;;;;;;;;;4462152;32;20341;-58
2022/06/07 14:30:56;;;;;;;6.28;4.43;;;;;;;;;;4466492;32;20238;-57
2022/06/07 14:33:23;;;;;;;4.95;4.55;;;;;;;;;;4466411;32;20263;-59
2022/06/07 14:35:50;;;;;;;5.80;4.15;;;;;;;;;;4465362;32;20238;-59
2022/06/07 14:38:18;;;;;;;7.65;4.75;;;;;;;;;;4452695;32;20261;-59
2022/06/07 14:40:46;;;;;;;5.22;4.45;;;;;;;;;;4449660;32;20217;-58
2022/06/07 14:43:14;;;;;;;4.82;3.50;;;;;;;;;;4451326;32;20216;-58
2022/06/07 14:45:56;;;;;;;5.03;4.35;;;;;;;;;;4450688;32;20230;-58
2022/06/07 14:48:28;;;;;;;8.45;4.93;;;;;;;;;;4452862;32;20799;-57
2022/06/07 14:50:54;;;;;;;5.43;4.53;;;;;;;;;;4451159;32;20564;-58
2022/06/07 14:53:20;;;;;;;4.65;4.20;;;;;;;;;;4450280;32;20291;-58
2022/06/07 14:55:46;;;;;;;8.68;4.37;;;;;;;;;;4451496;32;20670;-58
2022/06/07 14:58:13;;;;;;;16.73;5.57;;;;;;;;;;4449397;32;20299;-58
2022/06/07 15:00:39;;;;;;;5.22;3.95;;;;;;;;;;4451017;32;20196;-57
2022/06/07 15:03:06;;;;;;;7.87;5.10;;;;;;;;;;4451086;32;20303;-58
2022/06/07 15:05:36;;;;;;;8.07;4.82;;;;;;;;;;4450959;32;20204;-57
2022/06/07 15:08:06;;;;;;;8.82;4.72;;;;;;;;;;4450093;32;20666;-57
2022/06/07 15:10:35;;;;;;;6.68;3.67;;;;;;;;;;4450818;32;20197;-57
2022/06/07 15:13:11;;;;;;;5.47;4.45;;;;;;;;;;4451044;32;20680;-58
2022/06/07 15:15:36;;;;;;;6.70;5.10;;;;;;;;;;4448988;32;20220;-58
2022/06/07 15:18:02;;;;;;;13.52;5.05;;;;;;;;;;4449028;32;20644;-58
2022/06/07 15:20:31;;;;;;;7.75;5.37;;;;;;;;;;4448760;32;20264;-57
2022/06/07 15:22:58;;;;;;;5.65;4.40;;;;;;;;;;4449758;32;20283;-57
2022/06/07 15:25:27;;;;;;;6.20;4.55;;;;;;;;;;4450491;32;20204;-58
2022/06/07 15:27:53;;;;;;;8.45;4.75;;;;;;;;;;4450069;32;20208;-57